Wells, Pennsylvania
Current Conditions -  °F | °C
As of 12:53 AM on Saturday 29 Nov 2014 (Local Time) from KELM Reporting Station
Broken Clouds Broken Clouds  
Wind Chill: 15°   Ceiling: 12000
Heat Index: 15°   Visibility: 10mi
Dew Point: 12°   Wind: 0mph
Humidity: 88%   Direction: NA
Pressure: 30.22"   Gusts: NA
Location:  41.9519°N, 76.7808°W
Report Text: KELM 290553Z AUTO 00000KT 10SM BKN120 M09/M11 A3022 RMK AO2 SLP250 T10941111 11078 21106 53003
Loading
Personal Weather Stations






























Interactive Weather Map New forecast layout! Learn more

10-Day Weather Forecast

Advertisements
Track Severe Weather on mobile